Hlavní strana
METAR-TAF:

METAR-TAF

Letiště :

Curaçao, Nizozemské Antily

zeměpisná šířka: 12-12N, zeměpisná délka: 068-58W, výška: 9 m

Aktuální stav počasí

Zpráva byla vytvořena před 44 minutami, v 16:00 UTC
Východní vítr 15 kt
Teplota 32°C
Vlhkost vzduchu 63%
Tlak 1012 hPa
Viditelnost 10 km a více

METAR: TNCC 191600Z AUTO 10015KT 9999 NCD 32/24 Q1012 NOSIG

Čas: 12:44 (16:44 UTC)

Předpověď počasí

Zpráva byla vytvořena před 7 hodinami a 44 minutami, v 09:00 UTC
Předpověď platná od 19 v 12 UTC do 20 v 12 UTC
Východní vítr 15 kt
Viditelnost 10 km a více
Polojasno ve výšce 2000 ft
Dočasný
od 19 v 12 UTC do 19 v 15 UTC
Oblačno až skoro zataženo ve výšce 1500 ft
Oblačno až skoro zataženo ve výšce 8000 ft
Pravděpodobnost 30% :
Dočasný
od 19 v 12 UTC do 19 v 15 UTC
Viditelnost: 8000 m
Polojasno ve výšce 1000 ft, Cumulonimbus.
silné dešťové přeháňky, bouřka, déšť

TAF: TNCC 190900Z 1912/2012 09015KT 9999 SCT020 TEMPO 1912/1915 BKN015 BKN080 PROB30 TEMPO 1912/1915 8000 +SHRA TSRA SCT010CB

Stav a předpovědi počasí z více než 4 000 letišť (zprávy METAR a TAF).

Červené a žluté tečky na mapě představují dostupné meteorologické stanice.

Když kurzor umístíte na tečku, zobrazí se název stanice.

Pak kliknutím zobrazíte stav a předpověď počasí.

Chcete-li změnit mapu, kliknutím na zelené tlačítko se znaménkem +mapu přiblížíte, kliknutím na zelené tlačítko se znaménkem – mapu oddálíte a kliknutím na zelené šipky přejdete na sousední mapy.


METAR-TAF: